Time;durP1;ratioP1;P1;durP2;ratioP2;P2;SDS_P1;SDS_P2;PMS_P1;PMS_P2;Temp;Humidity;BMP_temperature;BMP_pressure;BME280_temperature;BME280_humidity;BME280_pressure;Samples;Min_cycle;Max_cycle;Signal;HPM_P1;HPM_P2
2021/11/14 00:02:16;;;;;;;3.85;1.88;;;;;;;5.28;68.35;100710.38;5037227;28;20120;-55
2021/11/14 00:04:46;;;;;;;2.30;1.90;;;;;;;5.18;68.48;100693.16;5020716;28;20420;-55
2021/11/14 00:07:12;;;;;;;2.53;1.77;;;;;;;5.27;68.66;100706.06;5021035;28;20056;-52
2021/11/14 00:09:38;;;;;;;2.88;1.95;;;;;;;5.25;68.39;100708.63;5030997;28;20053;-55
2021/11/14 00:12:06;;;;;;;4.45;2.20;;;;;;;5.23;68.53;100706.91;5032979;28;20467;-53
2021/11/14 00:14:32;;;;;;;2.33;1.95;;;;;;;5.23;68.44;100714.66;5010041;28;20393;-55
2021/11/14 00:16:58;;;;;;;2.65;1.70;;;;;;;5.23;68.57;100704.34;5013320;28;20041;-53
2021/11/14 00:19:23;;;;;;;4.10;2.08;;;;;;;5.23;68.27;100709.50;5016155;28;20132;-53
2021/11/14 00:21:49;;;;;;;3.13;1.70;;;;;;;5.23;68.13;100704.34;5029457;28;20056;-53
2021/11/14 00:24:16;;;;;;;4.97;2.05;;;;;;;5.23;68.03;100706.91;5009152;28;20037;-52
2021/11/14 00:26:42;;;;;;;3.17;1.98;;;;;;;5.13;68.72;100692.28;5036926;28;20041;-53
2021/11/14 00:29:09;;;;;;;2.40;2.00;;;;;;;5.19;68.31;100712.88;4996729;28;20065;-54
2021/11/14 00:31:35;;;;;;;3.25;1.90;;;;;;;5.19;69.05;100712.88;5019317;28;20095;-53
2021/11/14 00:34:04;;;;;;;2.47;1.80;;;;;;;5.14;68.21;100702.56;5013697;28;20046;-55
2021/11/14 00:36:32;;;;;;;3.28;2.33;;;;;;;5.26;68.56;100717.22;5018437;28;20038;-53
2021/11/14 00:38:58;;;;;;;2.47;1.90;;;;;;;5.27;68.36;100718.94;5025707;28;20061;-53
2021/11/14 00:41:24;;;;;;;2.53;1.83;;;;;;;5.24;68.03;100719.78;5019971;28;20046;-53
2021/11/14 00:43:52;;;;;;;2.45;1.83;;;;;;;5.25;67.67;100715.50;5018049;28;20056;-55
2021/11/14 00:46:18;;;;;;;3.20;2.05;;;;;;;5.26;67.73;100712.94;5023053;28;20033;-55
2021/11/14 00:48:46;;;;;;;2.63;1.90;;;;;;;5.27;68.03;100711.22;5021935;28;20065;-56
2021/11/14 00:51:17;;;;;;;3.63;2.10;;;;;;;5.29;68.15;100712.94;5025792;28;20076;-56
2021/11/14 00:53:43;;;;;;;3.08;1.83;;;;;;;5.28;68.55;100715.53;5028348;28;20057;-54
2021/11/14 00:56:09;;;;;;;2.75;1.90;;;;;;;5.28;68.29;100715.53;5023570;28;20578;-56
2021/11/14 00:58:35;;;;;;;3.05;2.10;;;;;;;5.27;68.12;100719.81;5034440;28;20602;-52
2021/11/14 01:01:01;;;;;;;2.13;1.50;;;;;;;5.25;68.79;100718.06;5031396;28;20045;-56
2021/11/14 01:03:27;;;;;;;2.25;1.55;;;;;;;5.21;67.82;100716.34;5031661;28;20466;-53
2021/11/14 01:05:54;;;;;;;2.85;1.60;;;;;;;5.21;68.48;100716.34;5030033;28;20091;-55
2021/11/14 01:08:19;;;;;;;2.97;1.50;;;;;;;5.20;68.20;100718.06;5051002;28;20094;-56
2021/11/14 01:10:51;;;;;;;2.50;1.58;;;;;;;5.19;68.58;100715.47;5048819;28;20044;-55
2021/11/14 01:13:17;;;;;;;2.50;1.70;;;;;;;5.21;68.48;100719.78;5051985;28;20091;-54
2021/11/14 01:15:44;;;;;;;4.28;1.58;;;;;;;5.21;68.57;100719.78;5037072;28;20037;-53
2021/11/14 01:18:12;;;;;;;2.38;1.58;;;;;;;5.21;68.59;100721.50;5046196;28;20053;-52
2021/11/14 01:20:40;;;;;;;1.95;1.30;;;;;;;5.20;68.96;100722.34;5031255;28;20095;-54
2021/11/14 01:23:07;;;;;;;1.92;1.40;;;;;;;5.18;68.33;100721.50;5033834;28;20049;-53
2021/11/14 01:25:34;;;;;;;2.90;1.50;;;;;;;5.14;68.55;100712.88;5046754;28;20143;-53
2021/11/14 01:28:00;;;;;;;2.08;1.20;;;;;;;5.15;69.20;100714.59;5032621;28;20052;-50
2021/11/14 01:30:30;;;;;;;1.92;1.35;;;;;;;5.17;69.02;100719.78;5036255;28;20037;-55
2021/11/14 01:32:58;;;;;;;2.53;1.60;;;;;;;5.16;69.14;100726.66;5039682;28;20135;-56
2021/11/14 01:35:25;;;;;;;2.17;1.45;;;;;;;5.15;68.87;100719.75;5048091;28;20044;-53
2021/11/14 01:37:52;;;;;;;2.85;1.20;;;;;;;5.13;68.82;100715.47;5046190;28;20524;-54
2021/11/14 01:40:22;;;;;;;2.35;1.50;;;;;;;5.12;68.33;100722.34;5030968;28;20157;-52
2021/11/14 01:42:48;;;;;;;3.13;1.50;;;;;;;5.11;68.63;100724.06;5033126;28;20041;-53
2021/11/14 01:45:15;;;;;;;2.60;1.52;;;;;;;5.10;68.70;100718.88;5045257;28;20049;-55
2021/11/14 01:47:41;;;;;;;3.33;1.30;;;;;;;5.11;68.97;100721.47;5035286;28;20045;-50
2021/11/14 01:50:11;;;;;;;3.38;1.40;;;;;;;5.07;68.04;100722.31;5044211;28;20136;-53
2021/11/14 01:52:39;;;;;;;4.63;1.65;;;;;;;5.07;67.56;100717.16;5044902;28;20045;-54
2021/11/14 01:55:06;;;;;;;3.42;1.50;;;;;;;5.06;68.15;100720.59;5028790;28;20437;-54
2021/11/14 01:57:31;;;;;;;4.72;1.60;;;;;;;5.08;67.29;100715.41;5037859;28;20041;-54
2021/11/14 01:59:57;;;;;;;2.50;1.45;;;;;;;5.06;67.31;100723.16;5051457;28;20052;-55
2021/11/14 02:02:23;;;;;;;3.75;1.70;;;;;;;5.04;67.41;100724.00;5033807;28;20095;-52
2021/11/14 02:04:50;;;;;;;2.50;1.58;;;;;;;5.05;67.35;100725.72;5036476;28;20032;-54
2021/11/14 02:07:18;;;;;;;3.75;2.75;;;;;;;5.05;67.83;100718.88;5018759;28;20037;-54
2021/11/14 02:09:44;;;;;;;3.95;1.88;;;;;;;5.06;67.84;100730.03;5025752;28;20041;-52
2021/11/14 02:12:10;;;;;;;2.35;1.58;;;;;;;5.10;67.86;100730.06;5016429;28;20132;-53
2021/11/14 02:14:36;;;;;;;2.85;1.70;;;;;;;5.09;68.17;100728.31;5031155;28;20037;-54
2021/11/14 02:17:03;;;;;;;2.50;1.50;;;;;;;5.07;68.01;100734.34;5021875;28;20053;-52
2021/11/14 02:19:29;;;;;;;2.75;1.83;;;;;;;5.04;67.83;100740.34;5021797;28;20041;-51
2021/11/14 02:21:55;;;;;;;3.17;1.70;;;;;;;4.97;67.80;100722.28;5023336;28;20776;-54
2021/11/14 02:24:21;;;;;;;1.50;1.10;;;;;;;5.07;67.91;100739.50;5037208;28;20037;-52
2021/11/14 02:26:47;;;;;;;1.10;0.80;;;;;;;5.06;67.01;100742.91;5041427;28;20053;-54
2021/11/14 02:29:14;;;;;;;1.63;0.90;;;;;;;4.96;66.56;100716.25;5020838;28;20134;-53
2021/11/14 02:31:40;;;;;;;2.55;0.85;;;;;;;5.05;66.54;100736.91;5013613;28;20429;-56
2021/11/14 02:34:06;;;;;;;1.73;0.90;;;;;;;5.06;66.09;100745.50;5017390;28;20046;-55
2021/11/14 02:36:32;;;;;;;2.20;0.82;;;;;;;4.98;66.24;100727.41;5044268;28;20084;-56
2021/11/14 02:38:58;;;;;;;1.30;0.98;;;;;;;5.05;65.88;100734.31;5022729;28;20147;-55
2021/11/14 02:41:25;;;;;;;1.85;1.10;;;;;;;5.07;65.41;100734.34;5024146;28;20501;-54
2021/11/14 02:43:52;;;;;;;1.88;1.08;;;;;;;5.05;65.57;100734.31;5021919;28;20067;-54
2021/11/14 02:46:18;;;;;;;1.00;0.75;;;;;;;5.02;65.03;100734.28;5027164;28;20046;-54
2021/11/14 02:48:45;;;;;;;2.22;1.00;;;;;;;5.02;64.94;100741.19;5036803;28;20048;-50
2021/11/14 02:51:15;;;;;;;1.00;0.70;;;;;;;5.03;64.76;100740.31;5021776;28;20102;-51
2021/11/14 02:53:41;;;;;;;1.30;0.88;;;;;;;5.03;63.69;100741.19;5016577;28;20061;-52
2021/11/14 02:56:07;;;;;;;1.30;0.90;;;;;;;4.97;63.85;100723.09;5016202;28;20033;-51
2021/11/14 02:58:33;;;;;;;1.40;1.00;;;;;;;5.07;63.90;100731.78;5020812;28;20045;-52
2021/11/14 03:01:09;;;;;;;1.55;1.08;;;;;;;5.02;63.77;100713.69;5010886;28;20077;-53
2021/11/14 03:03:35;;;;;;;1.88;1.30;;;;;;;5.08;64.08;100730.88;5032863;28;20045;-55
2021/11/14 03:06:02;;;;;;;2.28;1.10;;;;;;;5.07;63.98;100732.63;5021585;28;20553;-52
2021/11/14 03:08:28;;;;;;;1.02;0.70;;;;;;;5.09;63.54;100735.19;5040356;28;20048;-53
2021/11/14 03:10:54;;;;;;;1.52;0.93;;;;;;;5.08;63.77;100729.16;5028361;28;20045;-50
2021/11/14 03:13:38;;;;;;;2.53;1.02;;;;;;;5.10;63.95;100724.91;5028148;28;20429;-53
2021/11/14 03:16:11;;;;;;;1.42;1.20;;;;;;;5.08;63.86;100729.16;4996011;28;20418;-49
2021/11/14 03:18:38;;;;;;;1.90;1.00;;;;;;;5.05;64.10;100726.59;5023189;28;20045;-53
2021/11/14 03:21:05;;;;;;;1.15;0.80;;;;;;;5.06;64.02;100728.31;5027674;28;20103;-49
2021/11/14 03:23:30;;;;;;;1.30;1.10;;;;;;;5.08;63.51;100726.59;5009954;28;20046;-50
2021/11/14 03:25:58;;;;;;;1.67;0.90;;;;;;;5.08;63.80;100733.47;5011489;28;20365;-50
2021/11/14 03:28:24;;;;;;;1.98;1.10;;;;;;;5.06;64.19;100730.03;5024159;28;20619;-53
2021/11/14 03:30:52;;;;;;;1.35;0.80;;;;;;;5.05;64.01;100733.47;5015266;28;20124;-56
2021/11/14 03:33:18;;;;;;;1.58;0.90;;;;;;;5.00;63.71;100724.84;5012473;28;20037;-55
2021/11/14 03:35:50;;;;;;;1.73;0.90;;;;;;;4.91;64.11;100720.53;5032344;28;20139;-53
2021/11/14 03:38:17;;;;;;;1.70;0.80;;;;;;;4.91;64.25;100728.25;5042575;28;20128;-50
2021/11/14 03:40:43;;;;;;;1.17;0.85;;;;;;;4.89;64.43;100726.50;5044949;28;20041;-52
2021/11/14 03:43:09;;;;;;;1.10;0.73;;;;;;;4.76;63.78;100705.00;5035469;28;20402;-51
2021/11/14 03:45:36;;;;;;;1.70;0.90;;;;;;;4.84;64.64;100718.75;5035004;28;20041;-51
2021/11/14 03:48:03;;;;;;;2.28;0.90;;;;;;;4.85;64.49;100720.47;5036607;28;20040;-54
2021/11/14 03:50:29;;;;;;;2.85;1.20;;;;;;;4.83;65.15;100721.31;5040492;28;20045;-54
2021/11/14 03:52:55;;;;;;;1.60;1.10;;;;;;;4.82;64.69;100727.31;5019133;28;20052;-55
2021/11/14 03:55:22;;;;;;;0.95;0.75;;;;;;;4.71;64.90;100711.78;5039834;28;20041;-51
2021/11/14 03:57:48;;;;;;;1.92;1.10;;;;;;;4.83;65.58;100727.31;5027086;28;20402;-53
2021/11/14 04:00:25;;;;;;;1.50;0.90;;;;;;;4.83;65.58;100729.03;5030070;28;20052;-53
2021/11/14 04:02:54;;;;;;;3.22;1.20;;;;;;;4.72;65.41;100710.94;5028246;28;20125;-52
2021/11/14 04:05:20;;;;;;;1.38;1.10;;;;;;;4.76;65.94;100720.44;5027987;28;20421;-54
2021/11/14 04:07:46;;;;;;;1.88;1.10;;;;;;;4.86;65.79;100729.06;5047103;28;20045;-55
2021/11/14 04:10:14;;;;;;;1.92;1.10;;;;;;;4.88;65.35;100725.63;5042071;28;20053;-53
2021/11/14 04:12:40;;;;;;;1.40;0.90;;;;;;;4.78;65.54;100707.53;5029086;28;20136;-52
2021/11/14 04:15:07;;;;;;;2.30;1.15;;;;;;;4.81;65.71;100710.16;5029500;28;20053;-51
2021/11/14 04:17:34;;;;;;;3.08;1.10;;;;;;;4.91;65.54;100723.09;5038694;28;20047;-52
2021/11/14 04:20:00;;;;;;;1.80;1.10;;;;;;;4.93;65.37;100725.66;5031262;28;20049;-52
2021/11/14 04:22:26;;;;;;;1.90;0.90;;;;;;;4.96;65.51;100723.97;5037700;28;20046;-50
2021/11/14 04:24:52;;;;;;;4.00;1.45;;;;;;;4.97;65.77;100720.53;5024644;28;20044;-51
2021/11/14 04:27:18;;;;;;;1.35;1.00;;;;;;;4.99;65.76;100723.13;5029577;28;20110;-55
2021/11/14 04:29:44;;;;;;;1.40;1.10;;;;;;;5.02;66.09;100718.00;5040249;28;20504;-51
2021/11/14 04:32:10;;;;;;;1.52;1.13;;;;;;;5.01;65.71;100709.41;5011179;28;20134;-54
2021/11/14 04:34:36;;;;;;;3.20;1.25;;;;;;;5.03;65.25;100711.97;5028441;28;20042;-52
2021/11/14 04:37:02;;;;;;;4.47;1.90;;;;;;;4.95;65.54;100699.06;5030481;28;20417;-53
2021/11/14 04:39:28;;;;;;;3.28;1.30;;;;;;;5.03;65.42;100710.25;5027721;28;20041;-52
2021/11/14 04:41:54;;;;;;;1.98;1.30;;;;;;;5.07;65.19;100709.44;5046495;28;20056;-54
2021/11/14 04:44:20;;;;;;;1.58;1.00;;;;;;;5.10;65.42;100717.16;5042365;28;20041;-54
2021/11/14 04:46:46;;;;;;;3.08;1.40;;;;;;;5.13;64.96;100717.16;5028503;28;20095;-52
2021/11/14 04:49:12;;;;;;;1.70;1.10;;;;;;;5.05;64.56;100702.53;5029304;28;20132;-54
2021/11/14 04:51:38;;;;;;;3.30;1.40;;;;;;;5.11;64.34;100710.28;5031009;28;20097;-54
2021/11/14 04:54:04;;;;;;;1.33;1.15;;;;;;;5.09;64.46;100717.16;5047361;28;20542;-54
2021/11/14 04:56:30;;;;;;;2.00;1.13;;;;;;;5.13;64.99;100721.47;5025292;28;20041;-56
2021/11/14 04:58:56;;;;;;;3.25;1.83;;;;;;;5.12;64.90;100722.34;5043083;28;20056;-54
2021/11/14 05:01:22;;;;;;;2.15;1.40;;;;;;;5.13;64.61;100724.03;5031682;28;20057;-52
2021/11/14 05:03:48;;;;;;;2.90;1.50;;;;;;;5.13;64.74;100723.19;5029403;28;20497;-50
2021/11/14 05:06:15;;;;;;;1.40;1.10;;;;;;;5.14;64.15;100723.19;5047828;28;20512;-55
2021/11/14 05:08:41;;;;;;;2.17;1.30;;;;;;;5.16;63.94;100724.06;5046895;28;20033;-54
2021/11/14 05:11:07;;;;;;;4.43;2.80;;;;;;;5.19;64.13;100728.34;5042741;28;20044;-54
2021/11/14 05:13:32;;;;;;;3.10;1.42;;;;;;;5.18;64.10;100722.38;5035004;28;20104;-54
2021/11/14 05:15:58;;;;;;;2.25;1.73;;;;;;;5.18;64.07;100732.69;5027983;28;20048;-55
2021/11/14 05:18:24;;;;;;;3.05;1.70;;;;;;;5.21;63.95;100724.09;5030315;28;20041;-54
2021/11/14 05:20:50;;;;;;;3.28;1.50;;;;;;;5.14;63.46;100712.88;5032493;28;20037;-53
2021/11/14 05:23:16;;;;;;;1.70;1.33;;;;;;;5.22;63.34;100729.25;5035225;28;20049;-51
2021/11/14 05:25:44;;;;;;;3.03;1.58;;;;;;;5.24;63.52;100735.25;5035588;28;20041;-55
2021/11/14 05:28:10;;;;;;;4.38;1.83;;;;;;;5.24;63.67;100736.97;5038259;28;20033;-54
2021/11/14 05:30:36;;;;;;;4.63;1.50;;;;;;;5.16;63.79;100718.03;5039690;28;20052;-55
2021/11/14 05:33:02;;;;;;;6.40;2.35;;;;;;;5.13;63.75;100724.91;5049593;28;20168;-54
2021/11/14 05:35:28;;;;;;;4.90;1.50;;;;;;;5.20;63.08;100736.09;5034543;28;20422;-54
2021/11/14 05:37:54;;;;;;;3.25;1.73;;;;;;;5.10;63.07;100724.03;5031188;28;20037;-54
2021/11/14 05:40:20;;;;;;;3.50;1.40;;;;;;;5.16;62.87;100730.94;5039734;28;20042;-51
2021/11/14 05:42:46;;;;;;;3.85;1.90;;;;;;;5.12;62.94;100737.81;5031907;28;20048;-56
2021/11/14 05:45:12;;;;;;;3.10;1.75;;;;;;;5.07;62.25;100721.47;5021117;28;20098;-55
2021/11/14 05:47:38;;;;;;;2.33;1.33;;;;;;;5.13;62.26;100726.63;5029742;28;20043;-55
2021/11/14 05:50:06;;;;;;;2.67;1.58;;;;;;;5.15;62.38;100726.63;5027166;28;20432;-55
2021/11/14 05:52:32;;;;;;;2.00;1.45;;;;;;;5.03;62.00;100724.84;5039050;28;20540;-51
2021/11/14 05:54:58;;;;;;;2.60;1.60;;;;;;;4.87;61.67;100720.47;5027069;28;20046;-54
2021/11/14 05:57:26;;;;;;;3.50;1.58;;;;;;;4.98;61.93;100736.84;5032062;28;20045;-51
2021/11/14 06:05:13;;;;;;;1.77;1.40;;;;;;;4.83;61.34;100722.19;5048743;28;20041;-51
2021/11/14 06:07:39;;;;;;;4.45;2.03;;;;;;;4.86;62.20;100747.97;5046784;28;20041;-51
2021/11/14 06:10:06;;;;;;;9.40;2.08;;;;;;;4.88;62.60;100746.25;5047022;28;20045;-50
2021/11/14 06:12:33;;;;;;;3.55;2.00;;;;;;;4.93;62.76;100746.28;5029778;28;20049;-50
2021/11/14 06:14:59;;;;;;;6.00;2.35;;;;;;;5.07;62.37;100747.22;5041792;28;20037;-51
2021/11/14 06:17:25;;;;;;;4.90;2.60;;;;;;;5.03;62.35;100730.88;5032395;28;20047;-52
2021/11/14 06:19:51;;;;;;;4.28;2.50;;;;;;;5.18;62.12;100743.00;5031103;28;20484;-53
2021/11/14 06:22:18;;;;;;;6.43;2.30;;;;;;;4.97;62.71;100733.41;5035019;28;20045;-52
2021/11/14 06:24:44;;;;;;;2.83;2.08;;;;;;;5.10;62.93;100750.69;5027255;28;20064;-53
2021/11/14 06:27:10;;;;;;;4.72;2.00;;;;;;;4.85;62.99;100722.19;5037096;28;20706;-55
2021/11/14 06:29:36;;;;;;;5.93;2.63;;;;;;;4.89;63.17;100747.13;5037363;28;20165;-53
2021/11/14 06:32:02;;;;;;;4.35;2.28;;;;;;;4.84;62.99;100753.97;5013307;28;20517;-52
2021/11/14 06:34:28;;;;;;;3.38;1.98;;;;;;;4.92;63.57;100754.88;5032137;28;20131;-51
2021/11/14 06:36:54;;;;;;;4.53;2.20;;;;;;;5.11;63.54;100751.53;5038147;28;20114;-55
2021/11/14 06:39:20;;;;;;;6.60;2.20;;;;;;;5.10;63.63;100750.69;5030572;28;20092;-52
2021/11/14 06:41:46;;;;;;;4.93;2.60;;;;;;;4.87;63.92;100726.50;5040148;28;20045;-52
2021/11/14 06:44:12;;;;;;;5.57;2.92;;;;;;;4.99;64.61;100748.88;5028984;28;20049;-52
2021/11/14 06:46:38;;;;;;;4.35;2.88;;;;;;;5.01;65.15;100750.63;5059099;28;20037;-52
2021/11/14 06:49:04;;;;;;;6.82;2.90;;;;;;;4.85;66.02;100758.25;5027291;28;20037;-53
2021/11/14 06:51:31;;;;;;;6.07;3.25;;;;;;;4.78;66.17;100754.78;5008085;28;20528;-53
2021/11/14 06:53:57;;;;;;;6.53;2.97;;;;;;;4.79;67.01;100751.34;5022069;28;20068;-52
2021/11/14 06:56:23;;;;;;;4.68;2.83;;;;;;;4.90;66.38;100751.44;5025291;28;20045;-52
2021/11/14 06:58:49;;;;;;;6.78;3.25;;;;;;;4.96;66.85;100747.19;5030777;28;20087;-55
2021/11/14 07:01:15;;;;;;;6.15;3.03;;;;;;;5.03;66.87;100750.63;5030471;28;20148;-51
2021/11/14 07:03:41;;;;;;;7.20;3.85;;;;;;;5.09;66.65;100766.13;5029586;28;20124;-52
2021/11/14 07:06:07;;;;;;;5.38;3.15;;;;;;;4.88;67.29;100755.69;5028047;28;20044;-53
2021/11/14 07:08:33;;;;;;;7.70;2.97;;;;;;;4.80;67.99;100755.66;5037354;28;20083;-51
2021/11/14 07:10:59;;;;;;;6.05;3.40;;;;;;;4.71;67.63;100765.88;5020580;28;20052;-51
2021/11/14 07:13:26;;;;;;;3.95;2.80;;;;;;;4.63;68.00;100760.69;5045038;28;20036;-52
2021/11/14 07:15:51;;;;;;;7.57;3.08;;;;;;;4.66;67.71;100755.56;5040443;28;20041;-50
2021/11/14 07:18:17;;;;;;;4.70;2.17;;;;;;;4.51;68.54;100755.47;5048457;28;20535;-50
2021/11/14 07:20:43;;;;;;;5.25;3.45;;;;;;;4.31;69.01;100759.59;5032156;28;20175;-52
2021/11/14 07:23:09;;;;;;;5.82;2.75;;;;;;;4.30;69.07;100765.59;5030390;28;20053;-57
2021/11/14 07:25:35;;;;;;;5.10;2.78;;;;;;;4.10;69.87;100734.53;5014338;28;20042;-50
2021/11/14 07:28:02;;;;;;;4.28;2.78;;;;;;;4.28;69.62;100756.13;5010505;28;20041;-54
2021/11/14 07:30:28;;;;;;;7.60;3.08;;;;;;;4.26;69.91;100749.25;4976400;28;20038;-55
2021/11/14 07:32:55;;;;;;;4.50;3.20;;;;;;;4.12;70.02;100729.41;5016929;28;20045;-48
2021/11/14 07:35:24;;;;;;;6.28;3.20;;;;;;;4.44;69.63;100760.56;5047211;28;20083;-52
2021/11/14 07:37:50;;;;;;;5.95;3.15;;;;;;;4.60;69.27;100759.84;5030434;28;20641;-56
2021/11/14 07:40:17;;;;;;;7.28;3.10;;;;;;;4.52;69.72;100762.34;5009952;28;20047;-58
2021/11/14 07:42:46;;;;;;;8.50;3.45;;;;;;;4.43;69.87;100746.81;5014691;28;20766;-52
2021/11/14 07:45:16;;;;;;;8.35;2.92;;;;;;;4.38;70.13;100750.22;5016678;28;20060;-48
2021/11/14 07:47:42;;;;;;;6.30;3.05;;;;;;;4.30;70.18;100755.28;5009105;28;20469;-55
2021/11/14 07:50:09;;;;;;;8.60;3.20;;;;;;;4.26;70.41;100751.84;5017803;28;20425;-64
2021/11/14 07:52:35;;;;;;;5.10;3.30;;;;;;;4.40;69.88;100753.66;5026586;28;20041;-59
2021/11/14 07:55:02;;;;;;;7.03;3.08;;;;;;;4.43;69.93;100754.56;5023411;28;20497;-59
2021/11/14 07:57:28;;;;;;;8.05;3.00;;;;;;;4.31;70.64;100759.59;5026198;28;20099;-59
2021/11/14 07:59:54;;;;;;;5.50;2.90;;;;;;;4.08;70.76;100738.81;5027989;28;20038;-59
2021/11/14 08:02:19;;;;;;;4.85;3.00;;;;;;;4.04;72.12;100755.06;5029913;28;20041;-61
2021/11/14 08:04:45;;;;;;;10.85;3.17;;;;;;;4.00;72.55;100757.59;5028203;28;20037;-59
2021/11/14 08:07:11;;;;;;;3.22;2.25;;;;;;;4.05;72.99;100754.22;5027892;28;20097;-61
2021/11/14 08:09:37;;;;;;;6.25;3.55;;;;;;;4.08;72.71;100749.09;5032329;28;20132;-61
2021/11/14 08:12:04;;;;;;;3.97;2.72;;;;;;;3.99;73.42;100741.28;5027649;28;20045;-63
2021/11/14 08:14:29;;;;;;;6.00;3.40;;;;;;;4.06;73.41;100761.09;5026760;28;20041;-61
2021/11/14 08:16:55;;;;;;;5.72;3.50;;;;;;;4.05;73.86;100748.22;5027547;28;20164;-64
2021/11/14 08:19:21;;;;;;;7.05;3.70;;;;;;;4.15;73.44;100752.59;5028329;28;20046;-60
2021/11/14 08:21:47;;;;;;;7.32;3.70;;;;;;;4.18;73.48;100743.22;5026551;28;20045;-62
2021/11/14 08:24:13;;;;;;;8.38;4.15;;;;;;;4.23;73.24;100744.09;5030219;28;20040;-61
2021/11/14 08:26:39;;;;;;;11.10;3.47;;;;;;;4.24;73.42;100744.94;5028446;28;20037;-60
2021/11/14 08:29:05;;;;;;;6.15;3.50;;;;;;;4.37;73.38;100736.47;5026061;28;20460;-61
2021/11/14 08:31:31;;;;;;;14.35;3.72;;;;;;;4.36;73.33;100734.75;5025444;28;20033;-62
2021/11/14 08:34:00;;;;;;;7.35;3.28;;;;;;;4.34;73.52;100733.91;5025854;28;20484;-61
2021/11/14 08:36:27;;;;;;;7.47;3.60;;;;;;;4.49;72.59;100740.88;5026246;28;20041;-61
2021/11/14 08:38:54;;;;;;;5.05;3.05;;;;;;;4.43;72.94;100731.38;5029281;28;20145;-61
2021/11/14 08:41:20;;;;;;;5.78;3.10;;;;;;;4.24;72.77;100698.59;5027479;28;20097;-60
2021/11/14 08:43:45;;;;;;;10.60;3.58;;;;;;;4.53;72.27;100732.31;5028963;28;20048;-60
2021/11/14 08:46:11;;;;;;;5.13;3.25;;;;;;;4.50;72.27;100733.13;5024810;28;20044;-57
2021/11/14 08:48:38;;;;;;;5.72;3.10;;;;;;;4.53;71.98;100716.84;5013655;28;20038;-60
2021/11/14 08:51:04;;;;;;;8.82;4.63;;;;;;;4.56;71.55;100710.00;5019309;28;20057;-59
2021/11/14 08:53:30;;;;;;;10.57;3.20;;;;;;;4.56;72.38;100732.31;5007693;28;20041;-60
2021/11/14 08:55:57;;;;;;;6.30;3.42;;;;;;;4.59;71.76;100740.06;5015217;28;20041;-60
2021/11/14 08:58:24;;;;;;;5.82;3.13;;;;;;;4.58;72.31;100735.75;5018094;28;20046;-58
2021/11/14 09:00:49;;;;;;;7.03;3.80;;;;;;;4.50;72.06;100720.25;4997269;28;20038;-61
2021/11/14 09:03:16;;;;;;;9.68;3.80;;;;;;;4.57;72.24;100723.72;5013358;28;20052;-62
2021/11/14 09:05:42;;;;;;;13.65;3.80;;;;;;;4.58;71.78;100723.75;5014104;28;20137;-64
2021/11/14 09:08:08;;;;;;;4.85;3.10;;;;;;;4.67;71.11;100720.38;5015090;28;20042;-63
2021/11/14 09:10:35;;;;;;;8.55;3.47;;;;;;;4.61;71.29;100712.59;5022785;28;20084;-56
2021/11/14 09:13:01;;;;;;;6.57;3.45;;;;;;;4.67;71.36;100713.50;5023612;28;20068;-54
2021/11/14 09:15:32;;;;;;;5.13;3.30;;;;;;;4.71;71.18;100716.94;5030926;28;20409;-62
2021/11/14 09:18:00;;;;;;;6.80;2.38;;;;;;;4.68;70.56;100709.22;5026785;28;20088;-65
2021/11/14 09:20:26;;;;;;;7.10;3.35;;;;;;;4.51;70.50;100706.53;5014986;28;20034;-63
2021/11/14 09:22:52;;;;;;;4.28;2.88;;;;;;;4.54;70.49;100706.56;5001524;28;20046;-62
2021/11/14 09:25:20;;;;;;;10.50;3.90;;;;;;;4.51;71.47;100706.53;5010841;28;20030;-61
2021/11/14 09:27:47;;;;;;;5.70;3.50;;;;;;;4.58;71.05;100705.72;5012814;28;20061;-62
2021/11/14 09:30:13;;;;;;;11.05;3.30;;;;;;;4.64;70.75;100698.03;5011770;28;20464;-63
2021/11/14 09:32:39;;;;;;;7.43;3.13;;;;;;;4.41;70.63;100676.44;5012353;28;20046;-63
2021/11/14 09:35:06;;;;;;;4.13;3.00;;;;;;;4.50;70.33;100699.66;5012277;28;20103;-61
2021/11/14 09:37:32;;;;;;;4.55;2.95;;;;;;;4.42;70.91;100683.31;5012515;28;20513;-63
2021/11/14 09:39:58;;;;;;;8.57;3.65;;;;;;;4.59;70.82;100696.28;5016781;28;20048;-62
2021/11/14 09:42:25;;;;;;;8.07;3.55;;;;;;;4.74;70.02;100695.50;5048427;28;20599;-62
2021/11/14 09:44:53;;;;;;;6.55;2.85;;;;;;;4.86;70.15;100685.28;5038408;28;20498;-62
2021/11/14 09:47:18;;;;;;;7.65;3.10;;;;;;;4.92;70.11;100696.44;5018056;28;20088;-62
2021/11/14 09:49:45;;;;;;;11.15;2.95;;;;;;;4.84;69.32;100681.81;5017165;28;20056;-64
2021/11/14 09:52:11;;;;;;;7.75;3.10;;;;;;;4.74;70.08;100686.06;5030140;28;20077;-64
2021/11/14 09:54:38;;;;;;;5.68;2.80;;;;;;;4.70;69.97;100679.19;5017263;28;21911;-61
2021/11/14 09:57:05;;;;;;;5.00;2.63;;;;;;;4.62;69.94;100678.25;5013282;28;20597;-62
2021/11/14 09:59:31;;;;;;;5.32;2.72;;;;;;;4.47;70.56;100681.63;5046372;28;20518;-62
2021/11/14 10:01:58;;;;;;;7.40;3.63;;;;;;;4.41;71.48;100680.72;5033003;28;20127;-63
2021/11/14 10:04:25;;;;;;;6.45;3.45;;;;;;;4.34;71.12;100658.38;4985311;28;20100;-63
2021/11/14 10:07:05;;;;;;;5.78;3.00;;;;;;;4.44;71.23;100667.88;5015852;28;20514;-60
2021/11/14 10:09:52;;;;;;;7.35;3.42;;;;;;;4.40;70.81;100646.38;5029394;28;21949;-62
2021/11/14 10:12:35;;;;;;;5.88;2.70;;;;;;;4.53;70.52;100662.78;5015237;28;20049;-64
2021/11/14 10:15:17;;;;;;;4.60;2.75;;;;;;;4.59;70.20;100660.22;5014362;28;20053;-62
2021/11/14 10:17:50;;;;;;;9.90;3.03;;;;;;;4.44;69.90;100650.72;5002578;28;20044;-63
2021/11/14 10:20:22;;;;;;;6.43;2.85;;;;;;;4.56;69.78;100661.06;5009960;28;20502;-61
2021/11/14 10:23:00;;;;;;;;;;;;;;;4.63;69.78;100649.94;5012200;28;20037;-61
2021/11/14 10:25:29;;;;;;;4.82;2.47;;;;;;;4.79;70.11;100648.31;5029500;28;19917;-63
2021/11/14 10:27:57;;;;;;;3.70;2.40;;;;;;;5.04;69.74;100651.84;5027124;28;20068;-62
2021/11/14 10:30:25;;;;;;;9.43;3.08;;;;;;;5.08;69.61;100651.00;5005579;28;20041;-58
2021/11/14 10:32:57;;;;;;;8.90;2.78;;;;;;;4.91;69.77;100652.66;5022516;28;20426;-58
2021/11/14 10:35:24;;;;;;;6.57;2.88;;;;;;;4.92;70.68;100647.50;5012115;28;20041;-55
2021/11/14 10:37:51;;;;;;;5.38;2.92;;;;;;;4.99;70.41;100643.22;5010934;28;20057;-59
2021/11/14 10:40:26;;;;;;;5.45;3.03;;;;;;;4.97;70.83;100652.69;5033022;28;20052;-54
2021/11/14 10:42:57;;;;;;;4.53;2.70;;;;;;;5.09;70.00;100638.13;5028632;28;20046;-63
2021/11/14 10:45:25;;;;;;;7.93;2.40;;;;;;;5.22;69.72;100635.59;5023571;28;20029;-63
2021/11/14 10:47:54;;;;;;;3.70;2.20;;;;;;;5.09;68.71;100643.25;5018075;28;20046;-62
2021/11/14 10:50:21;;;;;;;2.97;2.13;;;;;;;4.82;69.04;100624.25;5018534;28;20033;-61
2021/11/14 10:52:58;;;;;;;4.30;2.03;;;;;;;4.81;69.26;100640.59;5015048;28;20041;-62
2021/11/14 10:55:25;;;;;;;3.63;2.00;;;;;;;4.69;69.47;100634.53;5017788;28;20044;-62
2021/11/14 10:57:52;;;;;;;4.75;2.20;;;;;;;4.71;69.51;100637.09;5017959;28;20544;-62
2021/11/14 11:00:21;;;;;;;3.05;1.92;;;;;;;4.79;69.95;100637.16;5018792;28;20056;-63
2021/11/14 11:02:47;;;;;;;2.33;1.67;;;;;;;4.66;69.47;100638.78;5016870;28;20048;-65
2021/11/14 11:05:25;;;;;;;5.18;2.13;;;;;;;4.56;70.54;100639.59;5017615;28;20567;-64
2021/11/14 11:07:57;;;;;;;3.50;1.90;;;;;;;4.59;70.75;100625.03;5022902;28;20777;-65
2021/11/14 11:10:25;;;;;;;3.97;2.47;;;;;;;4.69;70.83;100621.66;5023909;28;20054;-62
2021/11/14 11:12:51;;;;;;;4.95;2.53;;;;;;;4.88;70.55;100629.44;5014682;28;20426;-64
2021/11/14 11:15:19;;;;;;;4.88;2.35;;;;;;;4.85;71.11;100630.31;5016765;28;20104;-63
2021/11/14 11:17:48;;;;;;;6.10;2.30;;;;;;;4.70;71.78;100630.25;5015142;28;20046;-56
2021/11/14 11:20:17;;;;;;;4.35;2.63;;;;;;;4.67;72.34;100630.22;5018061;28;20132;-59
2021/11/14 11:23:07;;;;;;;5.88;2.28;;;;;;;4.34;73.58;100620.63;5019949;28;20072;-64
2021/11/14 11:25:47;;;;;;;6.57;2.58;;;;;;;4.17;74.58;100627.38;5017599;28;20402;-60
2021/11/14 11:28:28;;;;;;;4.53;1.75;;;;;;;4.00;76.27;100629.81;5017683;28;20041;-61
2021/11/14 11:31:01;;;;;;;3.83;1.77;;;;;;;3.84;77.29;100622.84;5025209;28;20063;-62
2021/11/14 11:33:29;;;;;;;2.10;1.63;;;;;;;3.69;78.82;100620.13;5017163;28;20120;-61
2021/11/14 11:35:55;;;;;;;4.47;2.00;;;;;;;3.43;81.10;100619.91;5018246;28;20045;-60
2021/11/14 11:38:23;;;;;;;3.05;2.03;;;;;;;3.48;81.74;100619.94;5015449;28;20056;-59
2021/11/14 11:40:49;;;;;;;2.78;2.00;;;;;;;3.47;82.11;100618.22;5015497;28;20048;-60